sensor_id;sensor_type;location;lat;lon;timestamp;P1;durP1;ratioP1;P2;durP2;ratioP2
7233;SDS011;3658;47.992;10.158;2022-12-18T00:03:33;4.97;;;4.03;;
7233;SDS011;3658;47.992;10.158;2022-12-18T00:06:01;5.37;;;4.30;;
7233;SDS011;3658;47.992;10.158;2022-12-18T00:08:28;4.60;;;4.20;;
7233;SDS011;3658;47.992;10.158;2022-12-18T00:10:55;5.27;;;4.70;;
7233;SDS011;3658;47.992;10.158;2022-12-18T00:13:29;6.93;;;4.30;;
7233;SDS011;3658;47.992;10.158;2022-12-18T00:16:00;4.50;;;4.10;;
7233;SDS011;3658;47.992;10.158;2022-12-18T00:18:28;4.57;;;4.10;;
7233;SDS011;3658;47.992;10.158;2022-12-18T00:20:59;5.50;;;4.33;;
7233;SDS011;3658;47.992;10.158;2022-12-18T00:23:27;5.03;;;4.53;;
7233;SDS011;3658;47.992;10.158;2022-12-18T00:25:55;7.57;;;4.37;;
7233;SDS011;3658;47.992;10.158;2022-12-18T00:28:25;4.80;;;4.17;;
7233;SDS011;3658;47.992;10.158;2022-12-18T00:30:58;4.33;;;3.93;;
7233;SDS011;3658;47.992;10.158;2022-12-18T00:33:26;5.57;;;4.43;;
7233;SDS011;3658;47.992;10.158;2022-12-18T00:35:53;4.77;;;4.10;;
7233;SDS011;3658;47.992;10.158;2022-12-18T00:38:22;4.80;;;4.10;;
7233;SDS011;3658;47.992;10.158;2022-12-18T00:40:49;5.60;;;4.10;;
7233;SDS011;3658;47.992;10.158;2022-12-18T00:43:15;4.67;;;4.23;;
7233;SDS011;3658;47.992;10.158;2022-12-18T00:45:42;5.63;;;4.53;;
7233;SDS011;3658;47.992;10.158;2022-12-18T00:48:09;4.80;;;4.13;;
7233;SDS011;3658;47.992;10.158;2022-12-18T00:50:36;4.73;;;4.33;;
7233;SDS011;3658;47.992;10.158;2022-12-18T00:53:03;5.10;;;4.23;;
7233;SDS011;3658;47.992;10.158;2022-12-18T00:55:31;5.10;;;4.33;;
7233;SDS011;3658;47.992;10.158;2022-12-18T00:57:58;4.97;;;4.40;;
7233;SDS011;3658;47.992;10.158;2022-12-18T01:00:25;4.40;;;4.00;;
7233;SDS011;3658;47.992;10.158;2022-12-18T01:02:52;4.33;;;3.80;;
7233;SDS011;3658;47.992;10.158;2022-12-18T01:05:19;4.53;;;4.13;;
7233;SDS011;3658;47.992;10.158;2022-12-18T01:07:46;4.53;;;4.13;;
7233;SDS011;3658;47.992;10.158;2022-12-18T01:10:13;5.00;;;4.50;;
7233;SDS011;3658;47.992;10.158;2022-12-18T01:12:42;4.80;;;4.17;;
7233;SDS011;3658;47.992;10.158;2022-12-18T01:15:09;4.30;;;3.90;;
7233;SDS011;3658;47.992;10.158;2022-12-18T01:17:37;4.50;;;4.00;;
7233;SDS011;3658;47.992;10.158;2022-12-18T01:20:05;4.70;;;4.17;;
7233;SDS011;3658;47.992;10.158;2022-12-18T01:22:33;4.90;;;4.40;;
7233;SDS011;3658;47.992;10.158;2022-12-18T01:25:00;4.70;;;4.20;;
7233;SDS011;3658;47.992;10.158;2022-12-18T01:27:28;5.33;;;4.33;;
7233;SDS011;3658;47.992;10.158;2022-12-18T01:29:56;4.33;;;3.93;;
7233;SDS011;3658;47.992;10.158;2022-12-18T01:32:23;4.53;;;4.13;;
7233;SDS011;3658;47.992;10.158;2022-12-18T01:34:50;4.73;;;4.13;;
7233;SDS011;3658;47.992;10.158;2022-12-18T01:37:17;4.30;;;3.90;;
7233;SDS011;3658;47.992;10.158;2022-12-18T01:39:44;3.90;;;3.50;;
7233;SDS011;3658;47.992;10.158;2022-12-18T01:42:11;4.87;;;4.37;;
7233;SDS011;3658;47.992;10.158;2022-12-18T01:44:51;4.43;;;4.03;;
7233;SDS011;3658;47.992;10.158;2022-12-18T01:47:27;4.40;;;4.00;;
7233;SDS011;3658;47.992;10.158;2022-12-18T01:49:58;4.43;;;4.03;;
7233;SDS011;3658;47.992;10.158;2022-12-18T01:52:28;4.53;;;4.10;;
7233;SDS011;3658;47.992;10.158;2022-12-18T01:54:58;4.37;;;3.97;;
7233;SDS011;3658;47.992;10.158;2022-12-18T01:57:27;4.37;;;3.97;;
7233;SDS011;3658;47.992;10.158;2022-12-18T01:59:56;4.77;;;4.37;;
7233;SDS011;3658;47.992;10.158;2022-12-18T02:02:27;4.30;;;3.90;;
7233;SDS011;3658;47.992;10.158;2022-12-18T02:04:55;3.60;;;3.30;;
7233;SDS011;3658;47.992;10.158;2022-12-18T02:07:24;4.50;;;3.97;;
7233;SDS011;3658;47.992;10.158;2022-12-18T02:09:59;4.80;;;4.30;;
7233;SDS011;3658;47.992;10.158;2022-12-18T02:12:30;4.50;;;4.10;;
7233;SDS011;3658;47.992;10.158;2022-12-18T02:15:11;5.47;;;3.90;;
7233;SDS011;3658;47.992;10.158;2022-12-18T02:17:44;4.30;;;3.90;;
7233;SDS011;3658;47.992;10.158;2022-12-18T02:20:16;4.40;;;3.97;;
7233;SDS011;3658;47.992;10.158;2022-12-18T02:22:51;4.30;;;3.90;;
7233;SDS011;3658;47.992;10.158;2022-12-18T02:25:32;4.77;;;4.27;;
7233;SDS011;3658;47.992;10.158;2022-12-18T02:28:21;4.43;;;4.03;;
7233;SDS011;3658;47.992;10.158;2022-12-18T02:30:52;4.27;;;3.97;;
7233;SDS011;3658;47.992;10.158;2022-12-18T02:33:22;4.70;;;4.20;;
7233;SDS011;3658;47.992;10.158;2022-12-18T02:35:51;4.93;;;4.43;;
7233;SDS011;3658;47.992;10.158;2022-12-18T02:38:22;4.53;;;4.13;;
7233;SDS011;3658;47.992;10.158;2022-12-18T02:40:51;4.40;;;4.00;;
7233;SDS011;3658;47.992;10.158;2022-12-18T02:43:21;4.30;;;3.90;;
7233;SDS011;3658;47.992;10.158;2022-12-18T02:45:50;4.47;;;4.07;;
7233;SDS011;3658;47.992;10.158;2022-12-18T02:48:21;4.00;;;3.70;;
7233;SDS011;3658;47.992;10.158;2022-12-18T02:50:53;4.57;;;4.13;;
7233;SDS011;3658;47.992;10.158;2022-12-18T02:53:27;4.27;;;3.87;;
7233;SDS011;3658;47.992;10.158;2022-12-18T02:56:02;4.43;;;4.00;;
7233;SDS011;3658;47.992;10.158;2022-12-18T02:58:36;4.27;;;3.87;;
7233;SDS011;3658;47.992;10.158;2022-12-18T03:01:14;4.43;;;3.90;;
7233;SDS011;3658;47.992;10.158;2022-12-18T03:03:46;4.03;;;3.70;;
7233;SDS011;3658;47.992;10.158;2022-12-18T03:06:20;4.60;;;4.20;;
7233;SDS011;3658;47.992;10.158;2022-12-18T03:08:51;4.30;;;3.90;;
7233;SDS011;3658;47.992;10.158;2022-12-18T03:11:22;4.23;;;3.70;;
7233;SDS011;3658;47.992;10.158;2022-12-18T03:14:07;4.20;;;3.80;;
7233;SDS011;3658;47.992;10.158;2022-12-18T03:16:35;4.53;;;4.13;;
7233;SDS011;3658;47.992;10.158;2022-12-18T03:19:04;4.50;;;4.10;;
7233;SDS011;3658;47.992;10.158;2022-12-18T03:21:36;5.17;;;4.53;;
7233;SDS011;3658;47.992;10.158;2022-12-18T03:24:09;4.40;;;4.00;;
7233;SDS011;3658;47.992;10.158;2022-12-18T03:26:37;4.30;;;3.90;;
7233;SDS011;3658;47.992;10.158;2022-12-18T03:29:12;4.50;;;3.93;;
7233;SDS011;3658;47.992;10.158;2022-12-18T03:31:45;4.30;;;3.90;;
7233;SDS011;3658;47.992;10.158;2022-12-18T03:34:17;4.63;;;4.13;;
7233;SDS011;3658;47.992;10.158;2022-12-18T03:36:49;4.90;;;4.10;;
7233;SDS011;3658;47.992;10.158;2022-12-18T03:39:16;4.43;;;4.03;;
7233;SDS011;3658;47.992;10.158;2022-12-18T03:41:44;4.20;;;3.80;;
7233;SDS011;3658;47.992;10.158;2022-12-18T03:44:18;4.43;;;4.03;;
7233;SDS011;3658;47.992;10.158;2022-12-18T03:46:51;4.87;;;4.43;;
7233;SDS011;3658;47.992;10.158;2022-12-18T03:49:25;4.20;;;3.80;;
7233;SDS011;3658;47.992;10.158;2022-12-18T03:52:01;4.60;;;4.10;;
7233;SDS011;3658;47.992;10.158;2022-12-18T03:54:30;5.57;;;4.50;;
7233;SDS011;3658;47.992;10.158;2022-12-18T03:57:00;4.63;;;4.13;;
7233;SDS011;3658;47.992;10.158;2022-12-18T03:59:32;5.07;;;4.10;;
7233;SDS011;3658;47.992;10.158;2022-12-18T04:02:02;3.83;;;3.43;;
7233;SDS011;3658;47.992;10.158;2022-12-18T04:04:31;4.70;;;4.20;;
7233;SDS011;3658;47.992;10.158;2022-12-18T04:07:00;4.77;;;4.17;;
7233;SDS011;3658;47.992;10.158;2022-12-18T04:09:29;4.53;;;4.10;;
7233;SDS011;3658;47.992;10.158;2022-12-18T04:11:58;4.60;;;4.17;;
7233;SDS011;3658;47.992;10.158;2022-12-18T04:14:25;4.50;;;4.10;;
7233;SDS011;3658;47.992;10.158;2022-12-18T04:16:53;4.63;;;4.13;;
7233;SDS011;3658;47.992;10.158;2022-12-18T04:19:20;4.00;;;3.70;;
7233;SDS011;3658;47.992;10.158;2022-12-18T04:21:49;4.00;;;3.70;;
7233;SDS011;3658;47.992;10.158;2022-12-18T04:24:16;4.47;;;4.07;;
7233;SDS011;3658;47.992;10.158;2022-12-18T04:26:43;4.10;;;3.70;;
7233;SDS011;3658;47.992;10.158;2022-12-18T04:29:10;5.00;;;4.50;;
7233;SDS011;3658;47.992;10.158;2022-12-18T04:31:37;5.77;;;4.57;;
7233;SDS011;3658;47.992;10.158;2022-12-18T04:34:06;5.00;;;4.33;;
7233;SDS011;3658;47.992;10.158;2022-12-18T04:36:32;4.70;;;4.30;;
7233;SDS011;3658;47.992;10.158;2022-12-18T04:38:59;4.43;;;4.03;;
7233;SDS011;3658;47.992;10.158;2022-12-18T04:41:26;4.57;;;4.07;;
7233;SDS011;3658;47.992;10.158;2022-12-18T04:43:53;4.57;;;4.17;;
7233;SDS011;3658;47.992;10.158;2022-12-18T04:46:21;4.33;;;3.90;;
7233;SDS011;3658;47.992;10.158;2022-12-18T04:48:48;4.97;;;4.30;;
7233;SDS011;3658;47.992;10.158;2022-12-18T04:51:16;4.77;;;4.27;;
7233;SDS011;3658;47.992;10.158;2022-12-18T04:53:43;4.33;;;3.93;;
7233;SDS011;3658;47.992;10.158;2022-12-18T04:56:11;4.50;;;4.10;;
7233;SDS011;3658;47.992;10.158;2022-12-18T04:58:40;4.40;;;4.00;;
7233;SDS011;3658;47.992;10.158;2022-12-18T05:01:08;4.60;;;4.20;;
7233;SDS011;3658;47.992;10.158;2022-12-18T05:03:36;5.23;;;4.30;;
7233;SDS011;3658;47.992;10.158;2022-12-18T05:06:03;4.30;;;3.90;;
7233;SDS011;3658;47.992;10.158;2022-12-18T05:08:32;4.90;;;4.37;;
7233;SDS011;3658;47.992;10.158;2022-12-18T05:11:00;4.70;;;4.20;;
7233;SDS011;3658;47.992;10.158;2022-12-18T05:13:28;4.90;;;4.40;;
7233;SDS011;3658;47.992;10.158;2022-12-18T05:15:56;4.70;;;4.30;;
7233;SDS011;3658;47.992;10.158;2022-12-18T05:18:23;4.33;;;3.93;;
7233;SDS011;3658;47.992;10.158;2022-12-18T05:20:50;5.03;;;4.57;;
7233;SDS011;3658;47.992;10.158;2022-12-18T05:23:18;4.60;;;4.20;;
7233;SDS011;3658;47.992;10.158;2022-12-18T05:25:50;4.10;;;3.70;;
7233;SDS011;3658;47.992;10.158;2022-12-18T05:28:17;5.60;;;4.70;;
7233;SDS011;3658;47.992;10.158;2022-12-18T05:30:47;5.30;;;4.80;;
7233;SDS011;3658;47.992;10.158;2022-12-18T05:33:15;4.93;;;4.43;;
7233;SDS011;3658;47.992;10.158;2022-12-18T05:35:42;4.00;;;3.60;;
7233;SDS011;3658;47.992;10.158;2022-12-18T05:38:09;4.60;;;4.20;;
7233;SDS011;3658;47.992;10.158;2022-12-18T05:40:40;4.70;;;4.10;;
7233;SDS011;3658;47.992;10.158;2022-12-18T05:43:09;4.40;;;4.00;;
7233;SDS011;3658;47.992;10.158;2022-12-18T05:45:36;4.47;;;3.97;;
7233;SDS011;3658;47.992;10.158;2022-12-18T05:48:04;4.40;;;4.00;;
7233;SDS011;3658;47.992;10.158;2022-12-18T05:50:33;3.97;;;3.57;;
7233;SDS011;3658;47.992;10.158;2022-12-18T05:53:00;4.47;;;4.00;;
7233;SDS011;3658;47.992;10.158;2022-12-18T05:55:28;3.93;;;3.60;;
7233;SDS011;3658;47.992;10.158;2022-12-18T05:57:55;4.63;;;4.23;;
7233;SDS011;3658;47.992;10.158;2022-12-18T06:00:23;4.90;;;3.70;;
7233;SDS011;3658;47.992;10.158;2022-12-18T06:02:50;4.97;;;3.03;;
7233;SDS011;3658;47.992;10.158;2022-12-18T06:05:17;5.03;;;3.43;;
7233;SDS011;3658;47.992;10.158;2022-12-18T06:07:44;7.23;;;3.07;;
7233;SDS011;3658;47.992;10.158;2022-12-18T06:10:11;3.93;;;2.70;;
7233;SDS011;3658;47.992;10.158;2022-12-18T06:12:38;4.77;;;2.57;;
7233;SDS011;3658;47.992;10.158;2022-12-18T06:15:05;2.70;;;2.50;;
7233;SDS011;3658;47.992;10.158;2022-12-18T06:17:35;2.70;;;2.50;;
7233;SDS011;3658;47.992;10.158;2022-12-18T06:20:03;4.80;;;2.57;;
7233;SDS011;3658;47.992;10.158;2022-12-18T06:22:32;4.23;;;2.60;;
7233;SDS011;3658;47.992;10.158;2022-12-18T06:24:59;3.20;;;2.90;;
7233;SDS011;3658;47.992;10.158;2022-12-18T06:27:26;4.43;;;2.60;;
7233;SDS011;3658;47.992;10.158;2022-12-18T06:29:53;3.30;;;2.63;;
7233;SDS011;3658;47.992;10.158;2022-12-18T06:32:21;4.17;;;3.10;;
7233;SDS011;3658;47.992;10.158;2022-12-18T06:34:50;5.47;;;2.77;;
7233;SDS011;3658;47.992;10.158;2022-12-18T06:37:18;3.27;;;2.57;;
7233;SDS011;3658;47.992;10.158;2022-12-18T06:39:45;3.07;;;2.60;;
7233;SDS011;3658;47.992;10.158;2022-12-18T06:42:12;3.10;;;2.80;;
7233;SDS011;3658;47.992;10.158;2022-12-18T06:44:39;3.23;;;2.90;;
7233;SDS011;3658;47.992;10.158;2022-12-18T06:47:06;4.63;;;3.00;;
7233;SDS011;3658;47.992;10.158;2022-12-18T06:49:33;2.80;;;2.50;;
7233;SDS011;3658;47.992;10.158;2022-12-18T06:52:01;2.97;;;2.60;;
7233;SDS011;3658;47.992;10.158;2022-12-18T06:54:28;3.00;;;2.73;;
7233;SDS011;3658;47.992;10.158;2022-12-18T06:56:55;3.83;;;2.50;;
7233;SDS011;3658;47.992;10.158;2022-12-18T06:59:22;3.00;;;2.67;;
7233;SDS011;3658;47.992;10.158;2022-12-18T07:01:49;2.43;;;2.23;;
7233;SDS011;3658;47.992;10.158;2022-12-18T07:04:16;2.87;;;2.60;;
7233;SDS011;3658;47.992;10.158;2022-12-18T07:06:44;2.60;;;2.37;;
7233;SDS011;3658;47.992;10.158;2022-12-18T07:09:12;3.23;;;2.93;;
7233;SDS011;3658;47.992;10.158;2022-12-18T07:11:39;2.77;;;2.57;;
7233;SDS011;3658;47.992;10.158;2022-12-18T07:14:06;3.47;;;2.93;;
7233;SDS011;3658;47.992;10.158;2022-12-18T07:16:34;3.00;;;2.70;;
7233;SDS011;3658;47.992;10.158;2022-12-18T07:19:01;3.67;;;2.60;;
7233;SDS011;3658;47.992;10.158;2022-12-18T07:21:28;3.33;;;2.70;;
7233;SDS011;3658;47.992;10.158;2022-12-18T07:23:55;2.90;;;2.60;;
7233;SDS011;3658;47.992;10.158;2022-12-18T07:26:23;2.87;;;2.67;;
7233;SDS011;3658;47.992;10.158;2022-12-18T07:28:53;3.23;;;2.93;;
7233;SDS011;3658;47.992;10.158;2022-12-18T07:31:22;3.17;;;2.87;;
7233;SDS011;3658;47.992;10.158;2022-12-18T07:33:50;2.70;;;2.50;;
7233;SDS011;3658;47.992;10.158;2022-12-18T07:36:17;2.80;;;2.43;;
7233;SDS011;3658;47.992;10.158;2022-12-18T07:38:46;3.40;;;2.67;;
7233;SDS011;3658;47.992;10.158;2022-12-18T07:41:14;3.20;;;2.90;;
7233;SDS011;3658;47.992;10.158;2022-12-18T07:43:42;3.00;;;2.80;;
7233;SDS011;3658;47.992;10.158;2022-12-18T07:46:09;3.07;;;2.70;;
7233;SDS011;3658;47.992;10.158;2022-12-18T07:48:38;3.33;;;3.03;;
7233;SDS011;3658;47.992;10.158;2022-12-18T07:51:06;3.00;;;2.70;;
7233;SDS011;3658;47.992;10.158;2022-12-18T07:53:34;3.50;;;2.93;;
7233;SDS011;3658;47.992;10.158;2022-12-18T07:56:02;3.50;;;3.20;;
7233;SDS011;3658;47.992;10.158;2022-12-18T07:58:32;3.20;;;2.87;;
7233;SDS011;3658;47.992;10.158;2022-12-18T08:01:04;3.20;;;2.53;;
7233;SDS011;3658;47.992;10.158;2022-12-18T08:03:33;3.80;;;3.20;;
7233;SDS011;3658;47.992;10.158;2022-12-18T08:06:00;5.20;;;3.00;;
7233;SDS011;3658;47.992;10.158;2022-12-18T08:08:27;4.33;;;2.90;;
7233;SDS011;3658;47.992;10.158;2022-12-18T08:10:55;3.30;;;3.00;;
7233;SDS011;3658;47.992;10.158;2022-12-18T08:13:22;7.60;;;3.20;;
7233;SDS011;3658;47.992;10.158;2022-12-18T08:15:55;5.10;;;2.80;;
7233;SDS011;3658;47.992;10.158;2022-12-18T08:18:24;3.50;;;2.83;;
7233;SDS011;3658;47.992;10.158;2022-12-18T08:20:51;3.47;;;3.17;;
7233;SDS011;3658;47.992;10.158;2022-12-18T08:23:18;3.43;;;2.87;;
7233;SDS011;3658;47.992;10.158;2022-12-18T08:25:45;5.30;;;3.00;;
7233;SDS011;3658;47.992;10.158;2022-12-18T08:28:12;2.90;;;2.70;;
7233;SDS011;3658;47.992;10.158;2022-12-18T08:30:43;3.43;;;3.13;;
7233;SDS011;3658;47.992;10.158;2022-12-18T08:33:10;3.47;;;2.90;;
7233;SDS011;3658;47.992;10.158;2022-12-18T08:35:38;3.43;;;2.77;;
7233;SDS011;3658;47.992;10.158;2022-12-18T08:38:05;4.17;;;3.10;;
7233;SDS011;3658;47.992;10.158;2022-12-18T08:40:32;3.40;;;3.10;;
7233;SDS011;3658;47.992;10.158;2022-12-18T08:42:59;3.20;;;2.70;;
7233;SDS011;3658;47.992;10.158;2022-12-18T08:45:43;4.77;;;3.07;;
7233;SDS011;3658;47.992;10.158;2022-12-18T08:48:10;3.60;;;3.30;;
7233;SDS011;3658;47.992;10.158;2022-12-18T08:50:39;4.57;;;2.90;;
7233;SDS011;3658;47.992;10.158;2022-12-18T08:53:06;3.27;;;2.97;;
7233;SDS011;3658;47.992;10.158;2022-12-18T08:55:34;4.43;;;3.37;;
7233;SDS011;3658;47.992;10.158;2022-12-18T08:58:01;3.83;;;3.33;;
7233;SDS011;3658;47.992;10.158;2022-12-18T09:00:28;3.30;;;2.80;;
7233;SDS011;3658;47.992;10.158;2022-12-18T09:02:55;4.53;;;3.10;;
7233;SDS011;3658;47.992;10.158;2022-12-18T09:05:22;5.70;;;3.40;;
7233;SDS011;3658;47.992;10.158;2022-12-18T09:07:50;4.33;;;3.40;;
7233;SDS011;3658;47.992;10.158;2022-12-18T09:10:17;3.87;;;3.27;;
7233;SDS011;3658;47.992;10.158;2022-12-18T09:12:44;4.07;;;3.40;;
7233;SDS011;3658;47.992;10.158;2022-12-18T09:15:11;3.60;;;3.30;;
7233;SDS011;3658;47.992;10.158;2022-12-18T09:17:38;4.13;;;3.13;;
7233;SDS011;3658;47.992;10.158;2022-12-18T09:20:05;3.57;;;3.03;;
7233;SDS011;3658;47.992;10.158;2022-12-18T09:22:33;4.83;;;3.73;;
7233;SDS011;3658;47.992;10.158;2022-12-18T09:25:01;4.77;;;3.43;;
7233;SDS011;3658;47.992;10.158;2022-12-18T09:27:29;5.33;;;3.47;;
7233;SDS011;3658;47.992;10.158;2022-12-18T09:29:55;5.13;;;3.80;;
7233;SDS011;3658;47.992;10.158;2022-12-18T09:32:22;5.23;;;3.57;;
7233;SDS011;3658;47.992;10.158;2022-12-18T09:34:49;4.27;;;3.70;;
7233;SDS011;3658;47.992;10.158;2022-12-18T09:37:16;4.47;;;3.27;;
7233;SDS011;3658;47.992;10.158;2022-12-18T09:39:43;6.83;;;3.73;;
7233;SDS011;3658;47.992;10.158;2022-12-18T09:42:12;4.83;;;3.40;;
7233;SDS011;3658;47.992;10.158;2022-12-18T09:44:47;4.63;;;3.70;;
7233;SDS011;3658;47.992;10.158;2022-12-18T09:47:17;4.23;;;3.60;;
7233;SDS011;3658;47.992;10.158;2022-12-18T09:49:49;4.40;;;3.60;;
7233;SDS011;3658;47.992;10.158;2022-12-18T09:52:21;4.00;;;3.60;;
7233;SDS011;3658;47.992;10.158;2022-12-18T09:54:53;4.70;;;3.90;;
7233;SDS011;3658;47.992;10.158;2022-12-18T09:57:26;5.97;;;4.20;;
7233;SDS011;3658;47.992;10.158;2022-12-18T09:59:54;7.23;;;3.77;;
7233;SDS011;3658;47.992;10.158;2022-12-18T10:02:25;4.20;;;3.80;;
7233;SDS011;3658;47.992;10.158;2022-12-18T10:05:05;7.37;;;4.00;;
7233;SDS011;3658;47.992;10.158;2022-12-18T10:07:39;5.00;;;3.90;;
7233;SDS011;3658;47.992;10.158;2022-12-18T10:10:18;4.20;;;3.70;;
7233;SDS011;3658;47.992;10.158;2022-12-18T10:12:55;3.67;;;3.30;;
7233;SDS011;3658;47.992;10.158;2022-12-18T10:15:28;4.60;;;3.63;;
7233;SDS011;3658;47.992;10.158;2022-12-18T10:18:03;6.07;;;3.57;;
7233;SDS011;3658;47.992;10.158;2022-12-18T10:20:40;5.13;;;3.23;;
7233;SDS011;3658;47.992;10.158;2022-12-18T10:23:12;6.67;;;3.87;;
7233;SDS011;3658;47.992;10.158;2022-12-18T10:25:48;4.97;;;3.47;;
7233;SDS011;3658;47.992;10.158;2022-12-18T10:28:21;4.13;;;3.50;;
7233;SDS011;3658;47.992;10.158;2022-12-18T10:30:50;6.20;;;3.80;;
7233;SDS011;3658;47.992;10.158;2022-12-18T10:33:18;4.47;;;4.03;;
7233;SDS011;3658;47.992;10.158;2022-12-18T10:35:47;6.03;;;4.10;;
7233;SDS011;3658;47.992;10.158;2022-12-18T10:38:23;4.23;;;3.83;;
7233;SDS011;3658;47.992;10.158;2022-12-18T10:40:52;4.03;;;3.63;;
7233;SDS011;3658;47.992;10.158;2022-12-18T10:43:25;3.90;;;3.50;;
7233;SDS011;3658;47.992;10.158;2022-12-18T10:46:04;4.97;;;3.57;;
7233;SDS011;3658;47.992;10.158;2022-12-18T10:48:40;5.27;;;4.00;;
7233;SDS011;3658;47.992;10.158;2022-12-18T10:51:19;4.23;;;3.83;;
7233;SDS011;3658;47.992;10.158;2022-12-18T10:53:51;5.57;;;4.20;;
7233;SDS011;3658;47.992;10.158;2022-12-18T10:56:21;4.47;;;4.07;;
7233;SDS011;3658;47.992;10.158;2022-12-18T10:58:56;4.33;;;3.90;;
7233;SDS011;3658;47.992;10.158;2022-12-18T11:01:25;4.47;;;4.07;;
7233;SDS011;3658;47.992;10.158;2022-12-18T11:04:00;4.50;;;4.00;;
7233;SDS011;3658;47.992;10.158;2022-12-18T11:06:33;4.37;;;3.97;;
7233;SDS011;3658;47.992;10.158;2022-12-18T11:09:19;4.63;;;4.10;;
7233;SDS011;3658;47.992;10.158;2022-12-18T11:11:48;4.27;;;3.83;;
7233;SDS011;3658;47.992;10.158;2022-12-18T11:14:20;4.07;;;3.67;;
7233;SDS011;3658;47.992;10.158;2022-12-18T11:16:49;4.03;;;3.67;;
7233;SDS011;3658;47.992;10.158;2022-12-18T11:19:22;3.70;;;3.40;;
7233;SDS011;3658;47.992;10.158;2022-12-18T11:21:56;5.00;;;3.53;;
7233;SDS011;3658;47.992;10.158;2022-12-18T11:24:25;4.73;;;3.93;;
7233;SDS011;3658;47.992;10.158;2022-12-18T11:26:55;6.43;;;4.20;;
7233;SDS011;3658;47.992;10.158;2022-12-18T11:29:27;11.40;;;4.00;;
7233;SDS011;3658;47.992;10.158;2022-12-18T11:32:25;4.27;;;3.63;;
7233;SDS011;3658;47.992;10.158;2022-12-18T11:35:04;6.37;;;3.90;;
7233;SDS011;3658;47.992;10.158;2022-12-18T11:37:41;4.13;;;3.63;;
7233;SDS011;3658;47.992;10.158;2022-12-18T11:40:15;11.23;;;4.50;;
7233;SDS011;3658;47.992;10.158;2022-12-18T11:42:47;4.50;;;3.50;;
7233;SDS011;3658;47.992;10.158;2022-12-18T11:45:29;4.83;;;3.73;;
7233;SDS011;3658;47.992;10.158;2022-12-18T11:48:01;4.30;;;3.90;;
7233;SDS011;3658;47.992;10.158;2022-12-18T11:50:32;8.80;;;4.00;;
7233;SDS011;3658;47.992;10.158;2022-12-18T11:53:09;9.13;;;4.67;;
7233;SDS011;3658;47.992;10.158;2022-12-18T11:55:39;6.17;;;4.00;;
7233;SDS011;3658;47.992;10.158;2022-12-18T11:58:16;6.47;;;4.20;;
7233;SDS011;3658;47.992;10.158;2022-12-18T12:00:55;5.53;;;3.90;;
7233;SDS011;3658;47.992;10.158;2022-12-18T12:03:38;5.63;;;3.87;;
7233;SDS011;3658;47.992;10.158;2022-12-18T12:06:16;6.93;;;3.90;;
7233;SDS011;3658;47.992;10.158;2022-12-18T12:08:53;4.37;;;3.63;;
7233;SDS011;3658;47.992;10.158;2022-12-18T12:11:30;6.90;;;3.73;;
7233;SDS011;3658;47.992;10.158;2022-12-18T12:14:09;4.67;;;3.80;;
7233;SDS011;3658;47.992;10.158;2022-12-18T12:16:47;4.83;;;3.67;;
7233;SDS011;3658;47.992;10.158;2022-12-18T12:19:25;6.20;;;4.10;;
7233;SDS011;3658;47.992;10.158;2022-12-18T12:22:04;4.50;;;4.10;;
7233;SDS011;3658;47.992;10.158;2022-12-18T12:24:43;6.17;;;4.17;;
7233;SDS011;3658;47.992;10.158;2022-12-18T12:27:24;6.50;;;3.80;;
7233;SDS011;3658;47.992;10.158;2022-12-18T12:30:05;4.23;;;3.83;;
7233;SDS011;3658;47.992;10.158;2022-12-18T12:32:45;6.07;;;3.57;;
7233;SDS011;3658;47.992;10.158;2022-12-18T12:35:29;4.33;;;3.80;;
7233;SDS011;3658;47.992;10.158;2022-12-18T12:38:05;5.13;;;3.80;;
7233;SDS011;3658;47.992;10.158;2022-12-18T12:40:37;4.17;;;3.77;;
7233;SDS011;3658;47.992;10.158;2022-12-18T12:43:19;4.53;;;3.53;;
7233;SDS011;3658;47.992;10.158;2022-12-18T12:45:52;4.07;;;3.67;;
7233;SDS011;3658;47.992;10.158;2022-12-18T12:48:27;5.47;;;4.20;;
7233;SDS011;3658;47.992;10.158;2022-12-18T12:51:01;4.10;;;3.70;;
7233;SDS011;3658;47.992;10.158;2022-12-18T12:53:35;5.33;;;3.83;;
7233;SDS011;3658;47.992;10.158;2022-12-18T12:56:04;4.20;;;3.60;;
7233;SDS011;3658;47.992;10.158;2022-12-18T12:58:34;4.67;;;4.17;;
7233;SDS011;3658;47.992;10.158;2022-12-18T13:01:09;4.20;;;3.80;;
7233;SDS011;3658;47.992;10.158;2022-12-18T13:03:48;4.33;;;3.80;;
7233;SDS011;3658;47.992;10.158;2022-12-18T13:06:25;3.90;;;3.57;;
7233;SDS011;3658;47.992;10.158;2022-12-18T13:08:59;3.67;;;3.37;;
7233;SDS011;3658;47.992;10.158;2022-12-18T13:11:32;4.07;;;3.67;;
7233;SDS011;3658;47.992;10.158;2022-12-18T13:14:20;3.70;;;3.30;;
7233;SDS011;3658;47.992;10.158;2022-12-18T13:16:50;5.13;;;3.63;;
7233;SDS011;3658;47.992;10.158;2022-12-18T13:19:25;3.80;;;3.50;;
7233;SDS011;3658;47.992;10.158;2022-12-18T13:21:53;3.67;;;3.33;;
7233;SDS011;3658;47.992;10.158;2022-12-18T13:24:23;3.97;;;3.60;;
7233;SDS011;3658;47.992;10.158;2022-12-18T13:26:52;4.37;;;3.97;;
7233;SDS011;3658;47.992;10.158;2022-12-18T13:32:21;8.20;;;6.33;;
7233;SDS011;3658;47.992;10.158;2022-12-18T13:37:56;19.23;;;14.93;;
7233;SDS011;3658;47.992;10.158;2022-12-18T13:40:52;22.37;;;15.77;;
7233;SDS011;3658;47.992;10.158;2022-12-18T13:43:23;18.50;;;14.83;;
7233;SDS011;3658;47.992;10.158;2022-12-18T13:45:59;15.80;;;13.27;;
7233;SDS011;3658;47.992;10.158;2022-12-18T13:48:32;17.20;;;13.23;;
7233;SDS011;3658;47.992;10.158;2022-12-18T13:51:02;14.03;;;11.93;;
7233;SDS011;3658;47.992;10.158;2022-12-18T13:53:35;13.77;;;11.53;;
7233;SDS011;3658;47.992;10.158;2022-12-18T13:56:05;12.10;;;9.43;;
7233;SDS011;3658;47.992;10.158;2022-12-18T13:58:32;13.53;;;10.23;;
7233;SDS011;3658;47.992;10.158;2022-12-18T14:00:59;12.37;;;8.80;;
7233;SDS011;3658;47.992;10.158;2022-12-18T14:03:29;12.37;;;8.47;;
7233;SDS011;3658;47.992;10.158;2022-12-18T14:05:59;11.57;;;7.87;;
7233;SDS011;3658;47.992;10.158;2022-12-18T14:08:36;9.90;;;7.77;;
7233;SDS011;3658;47.992;10.158;2022-12-18T14:11:05;13.37;;;7.40;;
7233;SDS011;3658;47.992;10.158;2022-12-18T14:13:35;11.40;;;6.87;;
7233;SDS011;3658;47.992;10.158;2022-12-18T14:16:06;16.47;;;6.60;;
7233;SDS011;3658;47.992;10.158;2022-12-18T14:18:37;12.37;;;6.03;;
7233;SDS011;3658;47.992;10.158;2022-12-18T14:21:15;17.83;;;6.37;;
7233;SDS011;3658;47.992;10.158;2022-12-18T14:23:47;9.00;;;6.17;;
7233;SDS011;3658;47.992;10.158;2022-12-18T14:26:22;9.43;;;5.93;;
7233;SDS011;3658;47.992;10.158;2022-12-18T14:28:52;8.97;;;5.77;;
7233;SDS011;3658;47.992;10.158;2022-12-18T14:31:20;11.37;;;5.60;;
7233;SDS011;3658;47.992;10.158;2022-12-18T14:33:48;7.20;;;5.40;;
7233;SDS011;3658;47.992;10.158;2022-12-18T14:36:16;10.70;;;5.63;;
7233;SDS011;3658;47.992;10.158;2022-12-18T14:38:49;9.17;;;5.20;;
7233;SDS011;3658;47.992;10.158;2022-12-18T14:41:18;9.17;;;5.40;;
7233;SDS011;3658;47.992;10.158;2022-12-18T14:43:47;9.07;;;5.43;;
7233;SDS011;3658;47.992;10.158;2022-12-18T14:46:27;8.20;;;5.60;;
7233;SDS011;3658;47.992;10.158;2022-12-18T14:49:00;8.13;;;4.97;;
7233;SDS011;3658;47.992;10.158;2022-12-18T14:51:30;8.23;;;5.30;;
7233;SDS011;3658;47.992;10.158;2022-12-18T14:54:00;8.70;;;5.40;;
7233;SDS011;3658;47.992;10.158;2022-12-18T14:56:30;6.97;;;5.43;;
7233;SDS011;3658;47.992;10.158;2022-12-18T14:59:00;8.40;;;4.80;;
7233;SDS011;3658;47.992;10.158;2022-12-18T15:01:30;6.77;;;4.93;;
7233;SDS011;3658;47.992;10.158;2022-12-18T15:03:59;7.50;;;5.30;;
7233;SDS011;3658;47.992;10.158;2022-12-18T15:06:32;8.77;;;4.67;;
7233;SDS011;3658;47.992;10.158;2022-12-18T15:09:02;7.63;;;4.67;;
7233;SDS011;3658;47.992;10.158;2022-12-18T15:11:33;5.67;;;4.63;;
7233;SDS011;3658;47.992;10.158;2022-12-18T15:16:50;7.80;;;4.60;;
7233;SDS011;3658;47.992;10.158;2022-12-18T15:19:18;8.07;;;5.00;;
7233;SDS011;3658;47.992;10.158;2022-12-18T15:21:47;7.10;;;5.23;;
7233;SDS011;3658;47.992;10.158;2022-12-18T15:24:18;9.70;;;5.57;;
7233;SDS011;3658;47.992;10.158;2022-12-18T15:26:49;8.50;;;4.77;;
7233;SDS011;3658;47.992;10.158;2022-12-18T15:29:17;10.40;;;4.77;;
7233;SDS011;3658;47.992;10.158;2022-12-18T15:31:57;7.43;;;4.93;;